sensor_id;sensor_type;location;lat;lon;timestamp;P1;durP1;ratioP1;P2;durP2;ratioP2
43114;SDS011;28727;50.068;14.452;2023-06-26T00:02:11;756.50;;;694.40;;
43114;SDS011;28727;50.068;14.452;2023-06-26T00:04:43;762.42;;;701.08;;
43114;SDS011;28727;50.068;14.452;2023-06-26T00:07:15;748.83;;;688.38;;
43114;SDS011;28727;50.068;14.452;2023-06-26T00:09:47;756.42;;;696.45;;
43114;SDS011;28727;50.068;14.452;2023-06-26T00:12:19;758.83;;;697.88;;
43114;SDS011;28727;50.068;14.452;2023-06-26T00:14:50;757.13;;;695.88;;
43114;SDS011;28727;50.068;14.452;2023-06-26T00:17:22;756.05;;;695.60;;
43114;SDS011;28727;50.068;14.452;2023-06-26T00:19:54;759.22;;;698.13;;
43114;SDS011;28727;50.068;14.452;2023-06-26T00:22:26;753.20;;;692.95;;
43114;SDS011;28727;50.068;14.452;2023-06-26T00:24:58;753.22;;;692.63;;
43114;SDS011;28727;50.068;14.452;2023-06-26T00:27:29;750.75;;;690.67;;
43114;SDS011;28727;50.068;14.452;2023-06-26T00:30:01;749.40;;;689.17;;
43114;SDS011;28727;50.068;14.452;2023-06-26T00:32:33;748.75;;;688.90;;
43114;SDS011;28727;50.068;14.452;2023-06-26T00:35:07;745.53;;;685.53;;
43114;SDS011;28727;50.068;14.452;2023-06-26T00:37:40;746.47;;;686.50;;
43114;SDS011;28727;50.068;14.452;2023-06-26T00:40:12;745.03;;;684.60;;
43114;SDS011;28727;50.068;14.452;2023-06-26T00:42:44;747.88;;;687.13;;
43114;SDS011;28727;50.068;14.452;2023-06-26T00:45:18;748.05;;;687.42;;
43114;SDS011;28727;50.068;14.452;2023-06-26T00:48:08;747.90;;;687.40;;
43114;SDS011;28727;50.068;14.452;2023-06-26T00:50:43;751.92;;;690.58;;
43114;SDS011;28727;50.068;14.452;2023-06-26T00:53:15;751.83;;;690.20;;
43114;SDS011;28727;50.068;14.452;2023-06-26T00:55:47;749.97;;;688.22;;
43114;SDS011;28727;50.068;14.452;2023-06-26T00:58:19;747.13;;;684.65;;
43114;SDS011;28727;50.068;14.452;2023-06-26T01:00:55;750.03;;;686.75;;
43114;SDS011;28727;50.068;14.452;2023-06-26T01:03:27;744.70;;;681.67;;
43114;SDS011;28727;50.068;14.452;2023-06-26T01:05:59;742.08;;;679.72;;
43114;SDS011;28727;50.068;14.452;2023-06-26T01:08:32;744.13;;;681.63;;
43114;SDS011;28727;50.068;14.452;2023-06-26T01:11:07;745.97;;;683.92;;
43114;SDS011;28727;50.068;14.452;2023-06-26T01:13:39;740.38;;;677.42;;
43114;SDS011;28727;50.068;14.452;2023-06-26T01:16:12;734.97;;;671.70;;
43114;SDS011;28727;50.068;14.452;2023-06-26T01:18:46;739.35;;;675.22;;
43114;SDS011;28727;50.068;14.452;2023-06-26T01:21:20;740.67;;;677.95;;
43114;SDS011;28727;50.068;14.452;2023-06-26T01:24:01;736.90;;;673.28;;
43114;SDS011;28727;50.068;14.452;2023-06-26T01:26:40;736.50;;;672.95;;
43114;SDS011;28727;50.068;14.452;2023-06-26T01:29:18;729.63;;;666.10;;
43114;SDS011;28727;50.068;14.452;2023-06-26T01:31:52;727.10;;;663.95;;
43114;SDS011;28727;50.068;14.452;2023-06-26T01:34:24;732.88;;;669.22;;
43114;SDS011;28727;50.068;14.452;2023-06-26T01:36:57;733.20;;;669.63;;
43114;SDS011;28727;50.068;14.452;2023-06-26T01:39:30;727.80;;;664.55;;
43114;SDS011;28727;50.068;14.452;2023-06-26T01:42:01;723.95;;;661.00;;
43114;SDS011;28727;50.068;14.452;2023-06-26T01:44:35;729.60;;;666.33;;
43114;SDS011;28727;50.068;14.452;2023-06-26T01:47:11;725.22;;;662.67;;
43114;SDS011;28727;50.068;14.452;2023-06-26T01:49:56;730.63;;;667.88;;
43114;SDS011;28727;50.068;14.452;2023-06-26T01:52:41;729.80;;;666.47;;
43114;SDS011;28727;50.068;14.452;2023-06-26T01:55:15;733.00;;;669.83;;
43114;SDS011;28727;50.068;14.452;2023-06-26T01:57:54;727.25;;;664.53;;
43114;SDS011;28727;50.068;14.452;2023-06-26T02:00:28;732.75;;;670.95;;
43114;SDS011;28727;50.068;14.452;2023-06-26T02:03:00;730.60;;;668.75;;
43114;SDS011;28727;50.068;14.452;2023-06-26T02:05:32;732.70;;;670.17;;
43114;SDS011;28727;50.068;14.452;2023-06-26T02:08:05;729.60;;;666.35;;
43114;SDS011;28727;50.068;14.452;2023-06-26T02:10:37;729.70;;;666.67;;
43114;SDS011;28727;50.068;14.452;2023-06-26T02:13:09;729.22;;;666.17;;
43114;SDS011;28727;50.068;14.452;2023-06-26T02:15:41;727.70;;;664.70;;
43114;SDS011;28727;50.068;14.452;2023-06-26T02:18:13;723.72;;;660.97;;
43114;SDS011;28727;50.068;14.452;2023-06-26T02:20:44;734.63;;;671.47;;
43114;SDS011;28727;50.068;14.452;2023-06-26T02:23:16;718.90;;;656.20;;
43114;SDS011;28727;50.068;14.452;2023-06-26T02:25:50;727.40;;;664.75;;
43114;SDS011;28727;50.068;14.452;2023-06-26T02:28:22;723.20;;;660.28;;
43114;SDS011;28727;50.068;14.452;2023-06-26T02:30:54;710.55;;;647.67;;
43114;SDS011;28727;50.068;14.452;2023-06-26T02:33:25;713.55;;;650.55;;
43114;SDS011;28727;50.068;14.452;2023-06-26T02:35:57;720.42;;;657.08;;
43114;SDS011;28727;50.068;14.452;2023-06-26T02:38:29;123.60;;;113.15;;
43114;SDS011;28727;50.068;14.452;2023-06-26T02:41:01;61.35;;;56.45;;
43114;SDS011;28727;50.068;14.452;2023-06-26T02:43:33;25.80;;;23.60;;
43114;SDS011;28727;50.068;14.452;2023-06-26T02:46:05;20.50;;;18.48;;
43114;SDS011;28727;50.068;14.452;2023-06-26T02:48:37;18.10;;;16.20;;
43114;SDS011;28727;50.068;14.452;2023-06-26T02:51:08;22.83;;;20.73;;
43114;SDS011;28727;50.068;14.452;2023-06-26T02:53:41;17.98;;;16.23;;
43114;SDS011;28727;50.068;14.452;2023-06-26T02:56:13;15.73;;;13.52;;
43114;SDS011;28727;50.068;14.452;2023-06-26T02:58:45;14.48;;;12.93;;
43114;SDS011;28727;50.068;14.452;2023-06-26T03:01:16;11.88;;;10.68;;
43114;SDS011;28727;50.068;14.452;2023-06-26T03:03:49;16.00;;;14.45;;
43114;SDS011;28727;50.068;14.452;2023-06-26T03:06:22;15.15;;;13.65;;
43114;SDS011;28727;50.068;14.452;2023-06-26T03:08:57;19.42;;;17.77;;
43114;SDS011;28727;50.068;14.452;2023-06-26T03:11:29;13.15;;;9.20;;
43114;SDS011;28727;50.068;14.452;2023-06-26T03:14:02;13.10;;;11.75;;
43114;SDS011;28727;50.068;14.452;2023-06-26T03:16:34;16.70;;;14.90;;
43114;SDS011;28727;50.068;14.452;2023-06-26T03:19:07;18.17;;;16.40;;
43114;SDS011;28727;50.068;14.452;2023-06-26T03:21:59;15.95;;;14.27;;
43114;SDS011;28727;50.068;14.452;2023-06-26T03:24:32;21.75;;;19.70;;
43114;SDS011;28727;50.068;14.452;2023-06-26T03:27:05;23.90;;;21.67;;
43114;SDS011;28727;50.068;14.452;2023-06-26T03:29:37;20.30;;;18.35;;
43114;SDS011;28727;50.068;14.452;2023-06-26T03:32:11;18.10;;;15.43;;
43114;SDS011;28727;50.068;14.452;2023-06-26T03:34:43;18.77;;;16.98;;
43114;SDS011;28727;50.068;14.452;2023-06-26T03:37:15;16.63;;;14.93;;
43114;SDS011;28727;50.068;14.452;2023-06-26T03:39:47;12.95;;;11.65;;
43114;SDS011;28727;50.068;14.452;2023-06-26T03:42:19;10.60;;;7.88;;
43114;SDS011;28727;50.068;14.452;2023-06-26T03:44:51;13.25;;;11.73;;
43114;SDS011;28727;50.068;14.452;2023-06-26T03:47:23;10.95;;;8.95;;
43114;SDS011;28727;50.068;14.452;2023-06-26T03:49:55;12.73;;;10.88;;
43114;SDS011;28727;50.068;14.452;2023-06-26T03:52:29;12.10;;;8.57;;
43114;SDS011;28727;50.068;14.452;2023-06-26T03:55:02;12.88;;;10.52;;
43114;SDS011;28727;50.068;14.452;2023-06-26T03:57:35;9.75;;;6.72;;
43114;SDS011;28727;50.068;14.452;2023-06-26T04:00:07;14.13;;;9.95;;
43114;SDS011;28727;50.068;14.452;2023-06-26T04:02:48;11.07;;;8.60;;
43114;SDS011;28727;50.068;14.452;2023-06-26T04:05:20;12.23;;;9.85;;
43114;SDS011;28727;50.068;14.452;2023-06-26T04:07:52;14.00;;;11.32;;
43114;SDS011;28727;50.068;14.452;2023-06-26T04:10:24;11.80;;;8.10;;
43114;SDS011;28727;50.068;14.452;2023-06-26T04:12:56;13.40;;;9.13;;
43114;SDS011;28727;50.068;14.452;2023-06-26T04:15:28;12.20;;;10.93;;
43114;SDS011;28727;50.068;14.452;2023-06-26T04:18:00;13.80;;;12.32;;
43114;SDS011;28727;50.068;14.452;2023-06-26T04:20:32;13.05;;;10.32;;
43114;SDS011;28727;50.068;14.452;2023-06-26T04:23:06;11.40;;;7.55;;
43114;SDS011;28727;50.068;14.452;2023-06-26T04:25:38;12.40;;;11.10;;
43114;SDS011;28727;50.068;14.452;2023-06-26T04:28:10;15.52;;;9.23;;
43114;SDS011;28727;50.068;14.452;2023-06-26T04:30:43;10.20;;;8.27;;
43114;SDS011;28727;50.068;14.452;2023-06-26T04:33:14;12.02;;;8.07;;
43114;SDS011;28727;50.068;14.452;2023-06-26T04:35:46;14.13;;;12.48;;
43114;SDS011;28727;50.068;14.452;2023-06-26T04:38:20;14.48;;;10.63;;
43114;SDS011;28727;50.068;14.452;2023-06-26T04:40:52;12.90;;;8.25;;
43114;SDS011;28727;50.068;14.452;2023-06-26T04:43:25;12.13;;;10.38;;
43114;SDS011;28727;50.068;14.452;2023-06-26T04:45:56;14.13;;;9.70;;
43114;SDS011;28727;50.068;14.452;2023-06-26T04:48:28;18.80;;;17.00;;
43114;SDS011;28727;50.068;14.452;2023-06-26T04:51:02;13.88;;;10.77;;
43114;SDS011;28727;50.068;14.452;2023-06-26T04:56:08;22.13;;;14.38;;
43114;SDS011;28727;50.068;14.452;2023-06-26T04:58:42;10.97;;;7.87;;
43114;SDS011;28727;50.068;14.452;2023-06-26T05:01:14;16.15;;;11.75;;
43114;SDS011;28727;50.068;14.452;2023-06-26T05:03:45;12.73;;;9.27;;
43114;SDS011;28727;50.068;14.452;2023-06-26T05:06:20;12.57;;;8.43;;
43114;SDS011;28727;50.068;14.452;2023-06-26T05:08:53;17.40;;;9.40;;
43114;SDS011;28727;50.068;14.452;2023-06-26T05:11:25;18.10;;;16.50;;
43114;SDS011;28727;50.068;14.452;2023-06-26T05:13:57;15.10;;;12.00;;
43114;SDS011;28727;50.068;14.452;2023-06-26T05:16:29;13.65;;;8.38;;
43114;SDS011;28727;50.068;14.452;2023-06-26T05:19:01;13.00;;;10.27;;
43114;SDS011;28727;50.068;14.452;2023-06-26T05:21:34;10.43;;;7.15;;
43114;SDS011;28727;50.068;14.452;2023-06-26T05:24:07;16.60;;;13.18;;
43114;SDS011;28727;50.068;14.452;2023-06-26T05:26:44;11.15;;;8.27;;
43114;SDS011;28727;50.068;14.452;2023-06-26T05:29:16;11.65;;;8.73;;
43114;SDS011;28727;50.068;14.452;2023-06-26T05:31:48;14.43;;;9.60;;
43114;SDS011;28727;50.068;14.452;2023-06-26T05:34:22;11.30;;;7.25;;
43114;SDS011;28727;50.068;14.452;2023-06-26T05:36:55;11.15;;;8.40;;
43114;SDS011;28727;50.068;14.452;2023-06-26T05:39:29;12.98;;;10.35;;
43114;SDS011;28727;50.068;14.452;2023-06-26T05:42:02;14.05;;;9.98;;
43114;SDS011;28727;50.068;14.452;2023-06-26T05:44:34;19.95;;;15.68;;
43114;SDS011;28727;50.068;14.452;2023-06-26T05:47:08;12.52;;;9.13;;
43114;SDS011;28727;50.068;14.452;2023-06-26T05:49:40;33.05;;;30.08;;
43114;SDS011;28727;50.068;14.452;2023-06-26T05:52:14;25.83;;;23.23;;
43114;SDS011;28727;50.068;14.452;2023-06-26T05:54:46;36.50;;;32.30;;
43114;SDS011;28727;50.068;14.452;2023-06-26T05:57:21;54.97;;;50.05;;
43114;SDS011;28727;50.068;14.452;2023-06-26T05:59:53;30.25;;;27.67;;
43114;SDS011;28727;50.068;14.452;2023-06-26T06:02:26;20.70;;;18.70;;
43114;SDS011;28727;50.068;14.452;2023-06-26T06:04:59;42.53;;;39.13;;
43114;SDS011;28727;50.068;14.452;2023-06-26T06:07:32;52.00;;;47.80;;
43114;SDS011;28727;50.068;14.452;2023-06-26T06:10:05;25.45;;;23.17;;
43114;SDS011;28727;50.068;14.452;2023-06-26T06:12:42;73.72;;;67.68;;
43114;SDS011;28727;50.068;14.452;2023-06-26T06:15:14;51.08;;;46.63;;
43114;SDS011;28727;50.068;14.452;2023-06-26T06:17:45;33.45;;;30.60;;
43114;SDS011;28727;50.068;14.452;2023-06-26T06:20:17;65.40;;;60.03;;
43114;SDS011;28727;50.068;14.452;2023-06-26T06:22:52;25.80;;;23.42;;
43114;SDS011;28727;50.068;14.452;2023-06-26T06:25:24;68.05;;;62.47;;
43114;SDS011;28727;50.068;14.452;2023-06-26T06:27:56;57.15;;;52.50;;
43114;SDS011;28727;50.068;14.452;2023-06-26T06:30:30;116.80;;;106.55;;
43114;SDS011;28727;50.068;14.452;2023-06-26T06:33:15;53.25;;;48.90;;
43114;SDS011;28727;50.068;14.452;2023-06-26T06:35:47;41.42;;;38.03;;
43114;SDS011;28727;50.068;14.452;2023-06-26T06:38:19;105.75;;;96.63;;
43114;SDS011;28727;50.068;14.452;2023-06-26T06:40:53;79.57;;;72.95;;
43114;SDS011;28727;50.068;14.452;2023-06-26T06:43:25;63.67;;;58.35;;
43114;SDS011;28727;50.068;14.452;2023-06-26T06:45:56;51.67;;;47.30;;
43114;SDS011;28727;50.068;14.452;2023-06-26T06:48:28;86.22;;;78.70;;
43114;SDS011;28727;50.068;14.452;2023-06-26T06:51:00;31.75;;;29.38;;
43114;SDS011;28727;50.068;14.452;2023-06-26T06:53:32;31.38;;;28.55;;
43114;SDS011;28727;50.068;14.452;2023-06-26T06:56:04;76.95;;;70.70;;
43114;SDS011;28727;50.068;14.452;2023-06-26T06:58:35;58.13;;;52.53;;
43114;SDS011;28727;50.068;14.452;2023-06-26T07:01:08;150.63;;;136.63;;
43114;SDS011;28727;50.068;14.452;2023-06-26T07:03:41;126.63;;;115.05;;
43114;SDS011;28727;50.068;14.452;2023-06-26T07:06:13;170.80;;;154.07;;
43114;SDS011;28727;50.068;14.452;2023-06-26T07:08:45;78.53;;;71.80;;
43114;SDS011;28727;50.068;14.452;2023-06-26T07:11:21;89.32;;;81.80;;
43114;SDS011;28727;50.068;14.452;2023-06-26T07:13:54;97.63;;;88.85;;
43114;SDS011;28727;50.068;14.452;2023-06-26T07:16:27;131.07;;;118.93;;
43114;SDS011;28727;50.068;14.452;2023-06-26T07:18:59;174.20;;;157.50;;
43114;SDS011;28727;50.068;14.452;2023-06-26T07:21:31;74.68;;;68.18;;
43114;SDS011;28727;50.068;14.452;2023-06-26T07:24:02;111.63;;;101.65;;
43114;SDS011;28727;50.068;14.452;2023-06-26T07:26:34;48.50;;;44.33;;
43114;SDS011;28727;50.068;14.452;2023-06-26T07:29:15;175.98;;;158.93;;
43114;SDS011;28727;50.068;14.452;2023-06-26T07:31:47;156.05;;;141.32;;
43114;SDS011;28727;50.068;14.452;2023-06-26T07:34:19;102.15;;;92.82;;
43114;SDS011;28727;50.068;14.452;2023-06-26T07:36:51;78.32;;;71.68;;
43114;SDS011;28727;50.068;14.452;2023-06-26T07:39:23;91.90;;;83.47;;
43114;SDS011;28727;50.068;14.452;2023-06-26T07:41:56;101.97;;;92.90;;
43114;SDS011;28727;50.068;14.452;2023-06-26T07:44:33;54.05;;;49.25;;
43114;SDS011;28727;50.068;14.452;2023-06-26T07:47:04;80.88;;;73.47;;
43114;SDS011;28727;50.068;14.452;2023-06-26T07:49:36;52.13;;;47.70;;
43114;SDS011;28727;50.068;14.452;2023-06-26T07:52:10;82.95;;;75.72;;
43114;SDS011;28727;50.068;14.452;2023-06-26T07:54:42;154.77;;;140.15;;
43114;SDS011;28727;50.068;14.452;2023-06-26T07:57:16;164.05;;;148.07;;
43114;SDS011;28727;50.068;14.452;2023-06-26T07:59:48;135.77;;;122.72;;
43114;SDS011;28727;50.068;14.452;2023-06-26T08:02:21;115.68;;;105.25;;
43114;SDS011;28727;50.068;14.452;2023-06-26T08:04:53;101.63;;;92.65;;
43114;SDS011;28727;50.068;14.452;2023-06-26T08:07:25;91.03;;;83.03;;
43114;SDS011;28727;50.068;14.452;2023-06-26T08:09:57;105.63;;;95.88;;
43114;SDS011;28727;50.068;14.452;2023-06-26T08:12:29;112.63;;;102.65;;
43114;SDS011;28727;50.068;14.452;2023-06-26T08:15:00;101.00;;;91.97;;
43114;SDS011;28727;50.068;14.452;2023-06-26T08:17:34;109.63;;;99.60;;
43114;SDS011;28727;50.068;14.452;2023-06-26T08:20:08;148.77;;;134.48;;
43114;SDS011;28727;50.068;14.452;2023-06-26T08:22:40;142.40;;;128.73;;
43114;SDS011;28727;50.068;14.452;2023-06-26T08:25:12;160.27;;;144.68;;
43114;SDS011;28727;50.068;14.452;2023-06-26T08:27:44;148.30;;;134.05;;
43114;SDS011;28727;50.068;14.452;2023-06-26T08:30:15;191.82;;;173.20;;
43114;SDS011;28727;50.068;14.452;2023-06-26T08:32:47;126.78;;;114.88;;
43114;SDS011;28727;50.068;14.452;2023-06-26T08:35:19;124.63;;;113.05;;
43114;SDS011;28727;50.068;14.452;2023-06-26T08:37:51;130.80;;;118.22;;
43114;SDS011;28727;50.068;14.452;2023-06-26T08:40:26;92.90;;;84.40;;
43114;SDS011;28727;50.068;14.452;2023-06-26T08:43:00;100.95;;;91.85;;
43114;SDS011;28727;50.068;14.452;2023-06-26T08:45:31;109.13;;;99.28;;
43114;SDS011;28727;50.068;14.452;2023-06-26T08:48:03;124.82;;;113.22;;
43114;SDS011;28727;50.068;14.452;2023-06-26T08:50:39;93.30;;;85.07;;
43114;SDS011;28727;50.068;14.452;2023-06-26T08:56:05;126.70;;;114.35;;
43114;SDS011;28727;50.068;14.452;2023-06-26T08:58:38;128.00;;;115.90;;
43114;SDS011;28727;50.068;14.452;2023-06-26T09:01:14;140.52;;;126.97;;
43114;SDS011;28727;50.068;14.452;2023-06-26T09:03:46;121.60;;;110.13;;
43114;SDS011;28727;50.068;14.452;2023-06-26T09:06:18;177.65;;;160.27;;
43114;SDS011;28727;50.068;14.452;2023-06-26T09:08:50;100.55;;;91.32;;
43114;SDS011;28727;50.068;14.452;2023-06-26T09:11:24;164.23;;;148.05;;
43114;SDS011;28727;50.068;14.452;2023-06-26T09:13:56;145.30;;;131.02;;
43114;SDS011;28727;50.068;14.452;2023-06-26T09:16:28;108.10;;;97.97;;
43114;SDS011;28727;50.068;14.452;2023-06-26T09:19:00;119.63;;;108.60;;
43114;SDS011;28727;50.068;14.452;2023-06-26T09:24:05;139.30;;;125.82;;
43114;SDS011;28727;50.068;14.452;2023-06-26T09:26:40;180.68;;;162.52;;
43114;SDS011;28727;50.068;14.452;2023-06-26T09:29:12;146.73;;;132.38;;
43114;SDS011;28727;50.068;14.452;2023-06-26T09:31:45;151.05;;;136.13;;
43114;SDS011;28727;50.068;14.452;2023-06-26T09:34:17;211.18;;;190.48;;
43114;SDS011;28727;50.068;14.452;2023-06-26T09:36:52;214.48;;;192.70;;
43114;SDS011;28727;50.068;14.452;2023-06-26T09:39:30;170.35;;;153.27;;
43114;SDS011;28727;50.068;14.452;2023-06-26T09:42:04;223.73;;;201.68;;
43114;SDS011;28727;50.068;14.452;2023-06-26T09:44:42;193.55;;;174.25;;
43114;SDS011;28727;50.068;14.452;2023-06-26T09:47:18;199.60;;;179.70;;
43114;SDS011;28727;50.068;14.452;2023-06-26T09:49:52;184.27;;;165.80;;
43114;SDS011;28727;50.068;14.452;2023-06-26T09:52:29;225.80;;;203.15;;
43114;SDS011;28727;50.068;14.452;2023-06-26T09:55:07;152.13;;;137.27;;
43114;SDS011;28727;50.068;14.452;2023-06-26T09:57:40;140.23;;;126.97;;
43114;SDS011;28727;50.068;14.452;2023-06-26T10:00:17;129.43;;;116.80;;
43114;SDS011;28727;50.068;14.452;2023-06-26T10:02:49;151.23;;;136.15;;
43114;SDS011;28727;50.068;14.452;2023-06-26T10:05:21;154.15;;;138.65;;
43114;SDS011;28727;50.068;14.452;2023-06-26T10:07:54;151.63;;;136.57;;
43114;SDS011;28727;50.068;14.452;2023-06-26T10:10:27;112.68;;;102.32;;
43114;SDS011;28727;50.068;14.452;2023-06-26T10:12:59;150.50;;;135.75;;
43114;SDS011;28727;50.068;14.452;2023-06-26T10:15:39;129.50;;;117.22;;
43114;SDS011;28727;50.068;14.452;2023-06-26T10:18:15;130.40;;;118.05;;
43114;SDS011;28727;50.068;14.452;2023-06-26T10:23:22;156.70;;;140.82;;
43114;SDS011;28727;50.068;14.452;2023-06-26T10:25:56;112.13;;;101.82;;
43114;SDS011;28727;50.068;14.452;2023-06-26T10:28:34;168.50;;;152.13;;
43114;SDS011;28727;50.068;14.452;2023-06-26T10:31:11;166.32;;;149.63;;
43114;SDS011;28727;50.068;14.452;2023-06-26T10:33:44;140.18;;;126.25;;
43114;SDS011;28727;50.068;14.452;2023-06-26T10:36:17;152.18;;;136.52;;
43114;SDS011;28727;50.068;14.452;2023-06-26T10:38:51;108.80;;;98.20;;
43114;SDS011;28727;50.068;14.452;2023-06-26T10:41:27;121.93;;;110.43;;
43114;SDS011;28727;50.068;14.452;2023-06-26T10:46:50;168.02;;;151.30;;
43114;SDS011;28727;50.068;14.452;2023-06-26T10:49:28;158.90;;;142.68;;
43114;SDS011;28727;50.068;14.452;2023-06-26T10:52:04;143.68;;;129.52;;
43114;SDS011;28727;50.068;14.452;2023-06-26T10:54:39;144.63;;;129.93;;
43114;SDS011;28727;50.068;14.452;2023-06-26T10:57:11;100.00;;;91.03;;
43114;SDS011;28727;50.068;14.452;2023-06-26T10:59:43;105.95;;;95.93;;
43114;SDS011;28727;50.068;14.452;2023-06-26T11:02:15;116.28;;;105.15;;
43114;SDS011;28727;50.068;14.452;2023-06-26T11:04:48;130.73;;;117.90;;
43114;SDS011;28727;50.068;14.452;2023-06-26T11:07:25;132.40;;;119.30;;
43114;SDS011;28727;50.068;14.452;2023-06-26T11:10:09;124.38;;;112.38;;
43114;SDS011;28727;50.068;14.452;2023-06-26T11:12:42;130.57;;;118.05;;
43114;SDS011;28727;50.068;14.452;2023-06-26T11:15:15;154.20;;;138.50;;
43114;SDS011;28727;50.068;14.452;2023-06-26T11:17:48;244.18;;;220.10;;
43114;SDS011;28727;50.068;14.452;2023-06-26T11:20:21;158.70;;;143.27;;
43114;SDS011;28727;50.068;14.452;2023-06-26T11:22:53;191.30;;;172.75;;
43114;SDS011;28727;50.068;14.452;2023-06-26T11:25:29;160.10;;;144.48;;
43114;SDS011;28727;50.068;14.452;2023-06-26T11:28:09;197.73;;;178.02;;
43114;SDS011;28727;50.068;14.452;2023-06-26T11:30:41;166.00;;;149.20;;
43114;SDS011;28727;50.068;14.452;2023-06-26T11:33:13;188.13;;;169.90;;
43114;SDS011;28727;50.068;14.452;2023-06-26T11:35:45;171.27;;;153.98;;
43114;SDS011;28727;50.068;14.452;2023-06-26T11:38:16;154.30;;;139.30;;
43114;SDS011;28727;50.068;14.452;2023-06-26T11:40:48;134.18;;;121.55;;
43114;SDS011;28727;50.068;14.452;2023-06-26T11:43:20;137.20;;;123.85;;
43114;SDS011;28727;50.068;14.452;2023-06-26T11:45:52;139.23;;;125.78;;
43114;SDS011;28727;50.068;14.452;2023-06-26T11:48:24;126.90;;;114.85;;
43114;SDS011;28727;50.068;14.452;2023-06-26T11:50:57;120.78;;;109.43;;
43114;SDS011;28727;50.068;14.452;2023-06-26T11:53:29;147.10;;;133.05;;
43114;SDS011;28727;50.068;14.452;2023-06-26T11:56:06;139.35;;;125.95;;
43114;SDS011;28727;50.068;14.452;2023-06-26T12:01:41;111.38;;;101.05;;
43114;SDS011;28727;50.068;14.452;2023-06-26T12:04:16;160.52;;;144.05;;
43114;SDS011;28727;50.068;14.452;2023-06-26T12:06:51;107.63;;;97.43;;
43114;SDS011;28727;50.068;14.452;2023-06-26T12:09:31;135.85;;;122.55;;
43114;SDS011;28727;50.068;14.452;2023-06-26T12:12:05;100.07;;;90.72;;
43114;SDS011;28727;50.068;14.452;2023-06-26T12:14:37;102.05;;;92.32;;
43114;SDS011;28727;50.068;14.452;2023-06-26T12:17:13;101.88;;;92.65;;
43114;SDS011;28727;50.068;14.452;2023-06-26T12:19:46;119.77;;;107.97;;
43114;SDS011;28727;50.068;14.452;2023-06-26T12:22:22;141.52;;;127.95;;
43114;SDS011;28727;50.068;14.452;2023-06-26T12:24:56;141.50;;;127.53;;
43114;SDS011;28727;50.068;14.452;2023-06-26T12:27:28;127.57;;;115.20;;
43114;SDS011;28727;50.068;14.452;2023-06-26T12:30:02;111.32;;;100.95;;
43114;SDS011;28727;50.068;14.452;2023-06-26T12:32:37;113.10;;;102.53;;
43114;SDS011;28727;50.068;14.452;2023-06-26T12:35:09;141.82;;;127.68;;
43114;SDS011;28727;50.068;14.452;2023-06-26T12:37:41;106.05;;;96.40;;
43114;SDS011;28727;50.068;14.452;2023-06-26T12:40:16;121.72;;;109.68;;
43114;SDS011;28727;50.068;14.452;2023-06-26T12:42:50;148.23;;;133.40;;
43114;SDS011;28727;50.068;14.452;2023-06-26T12:45:22;140.45;;;126.78;;
43114;SDS011;28727;50.068;14.452;2023-06-26T12:48:07;119.32;;;107.75;;
43114;SDS011;28727;50.068;14.452;2023-06-26T12:50:46;126.20;;;114.15;;
43114;SDS011;28727;50.068;14.452;2023-06-26T12:53:19;113.10;;;102.32;;
43114;SDS011;28727;50.068;14.452;2023-06-26T12:55:53;103.38;;;93.63;;
43114;SDS011;28727;50.068;14.452;2023-06-26T12:58:25;105.53;;;95.25;;
43114;SDS011;28727;50.068;14.452;2023-06-26T13:00:56;144.95;;;130.40;;
43114;SDS011;28727;50.068;14.452;2023-06-26T13:03:30;100.03;;;90.63;;
43114;SDS011;28727;50.068;14.452;2023-06-26T13:06:03;110.78;;;99.85;;
43114;SDS011;28727;50.068;14.452;2023-06-26T13:08:35;146.48;;;132.15;;
43114;SDS011;28727;50.068;14.452;2023-06-26T13:11:08;119.25;;;107.95;;
43114;SDS011;28727;50.068;14.452;2023-06-26T13:13:40;102.68;;;93.13;;
43114;SDS011;28727;50.068;14.452;2023-06-26T13:16:12;96.97;;;88.28;;
43114;SDS011;28727;50.068;14.452;2023-06-26T13:18:44;153.48;;;138.40;;
43114;SDS011;28727;50.068;14.452;2023-06-26T13:21:17;145.55;;;131.30;;
43114;SDS011;28727;50.068;14.452;2023-06-26T13:23:49;89.60;;;81.45;;
43114;SDS011;28727;50.068;14.452;2023-06-26T13:26:22;87.75;;;80.05;;
43114;SDS011;28727;50.068;14.452;2023-06-26T13:29:08;92.90;;;84.35;;
43114;SDS011;28727;50.068;14.452;2023-06-26T13:31:39;128.40;;;115.88;;
43114;SDS011;28727;50.068;14.452;2023-06-26T13:34:19;130.02;;;117.53;;
43114;SDS011;28727;50.068;14.452;2023-06-26T13:36:56;131.63;;;118.95;;
43114;SDS011;28727;50.068;14.452;2023-06-26T13:39:28;130.27;;;117.70;;
43114;SDS011;28727;50.068;14.452;2023-06-26T13:42:00;147.18;;;132.73;;
43114;SDS011;28727;50.068;14.452;2023-06-26T13:44:32;89.88;;;81.85;;
43114;SDS011;28727;50.068;14.452;2023-06-26T13:47:22;122.43;;;110.93;;
43114;SDS011;28727;50.068;14.452;2023-06-26T13:49:54;89.05;;;80.93;;
43114;SDS011;28727;50.068;14.452;2023-06-26T13:52:26;92.25;;;84.05;;
43114;SDS011;28727;50.068;14.452;2023-06-26T13:54:58;102.25;;;93.03;;
43114;SDS011;28727;50.068;14.452;2023-06-26T13:57:30;96.40;;;87.32;;
43114;SDS011;28727;50.068;14.452;2023-06-26T14:00:02;101.05;;;91.25;;
43114;SDS011;28727;50.068;14.452;2023-06-26T14:02:42;144.52;;;130.25;;
43114;SDS011;28727;50.068;14.452;2023-06-26T14:05:15;137.15;;;123.80;;
43114;SDS011;28727;50.068;14.452;2023-06-26T14:07:57;148.38;;;133.98;;
43114;SDS011;28727;50.068;14.452;2023-06-26T14:10:30;97.07;;;88.32;;
43114;SDS011;28727;50.068;14.452;2023-06-26T14:13:04;105.43;;;95.20;;
43114;SDS011;28727;50.068;14.452;2023-06-26T14:15:36;145.57;;;131.57;;
43114;SDS011;28727;50.068;14.452;2023-06-26T14:18:08;91.05;;;82.78;;
43114;SDS011;28727;50.068;14.452;2023-06-26T14:20:40;91.57;;;83.30;;
43114;SDS011;28727;50.068;14.452;2023-06-26T14:23:12;79.55;;;72.38;;
43114;SDS011;28727;50.068;14.452;2023-06-26T14:25:44;78.38;;;71.50;;
43114;SDS011;28727;50.068;14.452;2023-06-26T14:28:19;92.32;;;83.97;;
43114;SDS011;28727;50.068;14.452;2023-06-26T14:30:51;121.13;;;109.55;;
43114;SDS011;28727;50.068;14.452;2023-06-26T14:33:23;147.57;;;133.05;;
43114;SDS011;28727;50.068;14.452;2023-06-26T14:35:55;112.35;;;101.97;;
43114;SDS011;28727;50.068;14.452;2023-06-26T14:38:28;101.85;;;91.85;;
43114;SDS011;28727;50.068;14.452;2023-06-26T14:41:00;82.05;;;74.78;;
43114;SDS011;28727;50.068;14.452;2023-06-26T14:43:32;99.80;;;90.65;;
43114;SDS011;28727;50.068;14.452;2023-06-26T14:46:05;128.95;;;116.60;;
43114;SDS011;28727;50.068;14.452;2023-06-26T14:48:37;232.85;;;209.98;;